sensor_id;sensor_type;location;lat;lon;timestamp;temperature;humidity
30520;DHT22;17300;50.374;8.006;2022-09-09T00:00:13;19.70;55.20
30520;DHT22;17300;50.374;8.006;2022-09-09T00:02:43;19.70;55.60
30520;DHT22;17300;50.374;8.006;2022-09-09T00:05:19;19.60;55.30
30520;DHT22;17300;50.374;8.006;2022-09-09T00:07:51;19.60;55.60
30520;DHT22;17300;50.374;8.006;2022-09-09T00:10:25;19.50;55.40
30520;DHT22;17300;50.374;8.006;2022-09-09T00:13:00;19.50;55.80
30520;DHT22;17300;50.374;8.006;2022-09-09T00:15:32;19.40;55.70
30520;DHT22;17300;50.374;8.006;2022-09-09T00:18:07;19.40;55.80
30520;DHT22;17300;50.374;8.006;2022-09-09T00:20:43;19.40;55.80
30520;DHT22;17300;50.374;8.006;2022-09-09T00:23:16;19.40;55.80
30520;DHT22;17300;50.374;8.006;2022-09-09T00:25:51;19.30;55.70
30520;DHT22;17300;50.374;8.006;2022-09-09T00:28:23;19.30;56.10
30520;DHT22;17300;50.374;8.006;2022-09-09T00:30:51;19.30;55.90
30520;DHT22;17300;50.374;8.006;2022-09-09T00:33:20;19.20;55.60
30520;DHT22;17300;50.374;8.006;2022-09-09T00:35:51;19.20;56.00
30520;DHT22;17300;50.374;8.006;2022-09-09T00:38:23;19.20;56.00
30520;DHT22;17300;50.374;8.006;2022-09-09T00:40:56;19.10;56.10
30520;DHT22;17300;50.374;8.006;2022-09-09T00:43:29;19.10;56.30
30520;DHT22;17300;50.374;8.006;2022-09-09T00:46:25;19.10;56.20
30520;DHT22;17300;50.374;8.006;2022-09-09T00:49:03;19.00;56.70
30520;DHT22;17300;50.374;8.006;2022-09-09T00:51:43;19.00;56.40
30520;DHT22;17300;50.374;8.006;2022-09-09T00:54:27;18.90;56.60
30520;DHT22;17300;50.374;8.006;2022-09-09T00:57:04;18.90;56.80
30520;DHT22;17300;50.374;8.006;2022-09-09T00:59:40;18.90;56.50
30520;DHT22;17300;50.374;8.006;2022-09-09T01:02:15;18.90;56.50
30520;DHT22;17300;50.374;8.006;2022-09-09T01:04:44;18.80;56.40
30520;DHT22;17300;50.374;8.006;2022-09-09T01:07:16;18.70;56.20
30520;DHT22;17300;50.374;8.006;2022-09-09T01:09:51;18.70;56.70
30520;DHT22;17300;50.374;8.006;2022-09-09T01:12:25;18.60;56.90
30520;DHT22;17300;50.374;8.006;2022-09-09T01:15:03;18.60;56.80
30520;DHT22;17300;50.374;8.006;2022-09-09T01:17:37;18.60;56.90
30520;DHT22;17300;50.374;8.006;2022-09-09T01:20:12;18.50;56.60
30520;DHT22;17300;50.374;8.006;2022-09-09T01:22:49;18.50;56.90
30520;DHT22;17300;50.374;8.006;2022-09-09T01:25:25;18.50;56.90
30520;DHT22;17300;50.374;8.006;2022-09-09T01:27:56;18.50;56.90
30520;DHT22;17300;50.374;8.006;2022-09-09T01:30:24;18.40;56.80
30520;DHT22;17300;50.374;8.006;2022-09-09T01:32:54;18.40;56.80
30520;DHT22;17300;50.374;8.006;2022-09-09T01:35:31;18.40;56.80
30520;DHT22;17300;50.374;8.006;2022-09-09T01:37:59;18.40;57.20
30520;DHT22;17300;50.374;8.006;2022-09-09T01:40:26;18.30;57.50
30520;DHT22;17300;50.374;8.006;2022-09-09T01:42:54;18.30;57.10
30520;DHT22;17300;50.374;8.006;2022-09-09T01:45:22;18.30;57.20
30520;DHT22;17300;50.374;8.006;2022-09-09T01:47:51;18.30;57.30
30520;DHT22;17300;50.374;8.006;2022-09-09T01:50:18;18.30;57.40
30520;DHT22;17300;50.374;8.006;2022-09-09T01:52:48;18.30;57.50
30520;DHT22;17300;50.374;8.006;2022-09-09T01:55:16;18.30;57.70
30520;DHT22;17300;50.374;8.006;2022-09-09T01:57:53;18.30;57.80
30520;DHT22;17300;50.374;8.006;2022-09-09T02:00:25;18.30;58.30
30520;DHT22;17300;50.374;8.006;2022-09-09T02:02:59;18.40;58.00
30520;DHT22;17300;50.374;8.006;2022-09-09T02:05:35;18.40;58.40
30520;DHT22;17300;50.374;8.006;2022-09-09T02:08:06;18.50;58.40
30520;DHT22;17300;50.374;8.006;2022-09-09T02:10:40;18.50;58.00
30520;DHT22;17300;50.374;8.006;2022-09-09T02:13:10;18.50;58.10
30520;DHT22;17300;50.374;8.006;2022-09-09T02:15:44;18.60;57.80
30520;DHT22;17300;50.374;8.006;2022-09-09T02:18:22;18.60;58.10
30520;DHT22;17300;50.374;8.006;2022-09-09T02:20:51;18.60;58.00
30520;DHT22;17300;50.374;8.006;2022-09-09T02:23:19;18.60;57.50
30520;DHT22;17300;50.374;8.006;2022-09-09T02:25:48;18.60;57.50
30520;DHT22;17300;50.374;8.006;2022-09-09T02:28:17;18.50;57.50
30520;DHT22;17300;50.374;8.006;2022-09-09T02:30:49;18.50;57.50
30520;DHT22;17300;50.374;8.006;2022-09-09T02:33:21;18.50;57.70
30520;DHT22;17300;50.374;8.006;2022-09-09T02:35:49;18.40;57.50
30520;DHT22;17300;50.374;8.006;2022-09-09T02:38:17;18.40;57.60
30520;DHT22;17300;50.374;8.006;2022-09-09T02:40:45;18.40;57.60
30520;DHT22;17300;50.374;8.006;2022-09-09T02:43:14;18.40;57.60
30520;DHT22;17300;50.374;8.006;2022-09-09T02:45:47;18.40;57.80
30520;DHT22;17300;50.374;8.006;2022-09-09T02:48:26;18.30;58.50
30520;DHT22;17300;50.374;8.006;2022-09-09T02:51:03;18.30;58.00
30520;DHT22;17300;50.374;8.006;2022-09-09T02:53:39;18.20;58.10
30520;DHT22;17300;50.374;8.006;2022-09-09T02:56:13;18.30;58.20
30520;DHT22;17300;50.374;8.006;2022-09-09T02:58:42;18.30;58.20
30520;DHT22;17300;50.374;8.006;2022-09-09T03:01:09;18.30;58.10
30520;DHT22;17300;50.374;8.006;2022-09-09T03:03:38;18.30;58.20
30520;DHT22;17300;50.374;8.006;2022-09-09T03:06:07;18.30;58.40
30520;DHT22;17300;50.374;8.006;2022-09-09T03:08:33;18.30;58.40
30520;DHT22;17300;50.374;8.006;2022-09-09T03:11:00;18.30;58.50
30520;DHT22;17300;50.374;8.006;2022-09-09T03:13:27;18.30;58.50
30520;DHT22;17300;50.374;8.006;2022-09-09T03:15:54;18.30;58.50
30520;DHT22;17300;50.374;8.006;2022-09-09T03:18:21;18.40;58.60
30520;DHT22;17300;50.374;8.006;2022-09-09T03:20:49;18.40;58.60
30520;DHT22;17300;50.374;8.006;2022-09-09T03:23:16;18.40;58.60
30520;DHT22;17300;50.374;8.006;2022-09-09T03:25:46;18.30;58.90
30520;DHT22;17300;50.374;8.006;2022-09-09T03:28:14;18.40;58.50
30520;DHT22;17300;50.374;8.006;2022-09-09T03:30:40;18.30;58.30
30520;DHT22;17300;50.374;8.006;2022-09-09T03:33:07;18.40;58.90
30520;DHT22;17300;50.374;8.006;2022-09-09T03:35:34;18.30;58.20
30520;DHT22;17300;50.374;8.006;2022-09-09T03:38:02;18.30;58.30
30520;DHT22;17300;50.374;8.006;2022-09-09T03:40:29;18.20;58.40
30520;DHT22;17300;50.374;8.006;2022-09-09T03:42:56;18.30;58.50
30520;DHT22;17300;50.374;8.006;2022-09-09T03:45:23;18.30;58.50
30520;DHT22;17300;50.374;8.006;2022-09-09T03:47:49;18.20;58.60
30520;DHT22;17300;50.374;8.006;2022-09-09T03:50:16;18.30;58.80
30520;DHT22;17300;50.374;8.006;2022-09-09T03:52:43;18.30;58.90
30520;DHT22;17300;50.374;8.006;2022-09-09T03:55:12;18.20;58.80
30520;DHT22;17300;50.374;8.006;2022-09-09T03:57:39;18.20;58.80
30520;DHT22;17300;50.374;8.006;2022-09-09T04:00:08;18.30;58.90
30520;DHT22;17300;50.374;8.006;2022-09-09T04:02:35;18.30;59.00
30520;DHT22;17300;50.374;8.006;2022-09-09T04:05:01;18.20;59.60
30520;DHT22;17300;50.374;8.006;2022-09-09T04:07:28;18.30;59.10
30520;DHT22;17300;50.374;8.006;2022-09-09T04:09:55;18.30;59.10
30520;DHT22;17300;50.374;8.006;2022-09-09T04:12:23;18.30;59.10
30520;DHT22;17300;50.374;8.006;2022-09-09T04:14:50;18.30;59.10
30520;DHT22;17300;50.374;8.006;2022-09-09T04:17:17;18.30;59.00
30520;DHT22;17300;50.374;8.006;2022-09-09T04:19:43;18.30;59.00
30520;DHT22;17300;50.374;8.006;2022-09-09T04:22:10;18.40;59.10
30520;DHT22;17300;50.374;8.006;2022-09-09T04:24:37;18.40;59.20
30520;DHT22;17300;50.374;8.006;2022-09-09T04:27:04;18.40;59.30
30520;DHT22;17300;50.374;8.006;2022-09-09T04:29:32;18.30;59.30
30520;DHT22;17300;50.374;8.006;2022-09-09T04:31:58;18.30;59.40
30520;DHT22;17300;50.374;8.006;2022-09-09T04:34:25;18.40;59.50
30520;DHT22;17300;50.374;8.006;2022-09-09T04:36:52;18.40;59.50
30520;DHT22;17300;50.374;8.006;2022-09-09T04:39:18;18.50;59.60
30520;DHT22;17300;50.374;8.006;2022-09-09T04:41:45;18.50;59.60
30520;DHT22;17300;50.374;8.006;2022-09-09T04:44:12;18.50;59.60
30520;DHT22;17300;50.374;8.006;2022-09-09T04:46:40;18.50;59.40
30520;DHT22;17300;50.374;8.006;2022-09-09T04:49:07;18.50;59.40
30520;DHT22;17300;50.374;8.006;2022-09-09T04:51:35;18.50;59.30
30520;DHT22;17300;50.374;8.006;2022-09-09T04:54:02;18.50;59.40
30520;DHT22;17300;50.374;8.006;2022-09-09T04:56:29;18.50;59.50
30520;DHT22;17300;50.374;8.006;2022-09-09T04:58:59;18.50;59.60
30520;DHT22;17300;50.374;8.006;2022-09-09T05:01:28;18.50;59.60
30520;DHT22;17300;50.374;8.006;2022-09-09T05:03:56;18.50;59.60
30520;DHT22;17300;50.374;8.006;2022-09-09T05:06:23;18.50;60.60
30520;DHT22;17300;50.374;8.006;2022-09-09T05:08:50;18.60;60.20
30520;DHT22;17300;50.374;8.006;2022-09-09T05:11:18;18.60;60.20
30520;DHT22;17300;50.374;8.006;2022-09-09T05:13:46;18.70;60.20
30520;DHT22;17300;50.374;8.006;2022-09-09T05:16:13;18.60;60.00
30520;DHT22;17300;50.374;8.006;2022-09-09T05:18:41;18.70;60.00
30520;DHT22;17300;50.374;8.006;2022-09-09T05:21:10;18.70;60.00
30520;DHT22;17300;50.374;8.006;2022-09-09T05:23:37;18.80;60.10
30520;DHT22;17300;50.374;8.006;2022-09-09T05:26:05;18.80;60.10
30520;DHT22;17300;50.374;8.006;2022-09-09T05:28:34;18.80;60.20
30520;DHT22;17300;50.374;8.006;2022-09-09T05:31:04;18.80;60.10
30520;DHT22;17300;50.374;8.006;2022-09-09T05:33:33;18.90;60.20
30520;DHT22;17300;50.374;8.006;2022-09-09T05:36:03;18.90;60.20
30520;DHT22;17300;50.374;8.006;2022-09-09T05:38:32;19.00;60.40
30520;DHT22;17300;50.374;8.006;2022-09-09T05:40:59;19.00;60.30
30520;DHT22;17300;50.374;8.006;2022-09-09T05:43:26;19.00;60.20
30520;DHT22;17300;50.374;8.006;2022-09-09T05:46:00;19.10;60.30
30520;DHT22;17300;50.374;8.006;2022-09-09T05:48:28;19.10;60.60
30520;DHT22;17300;50.374;8.006;2022-09-09T05:50:57;19.20;60.30
30520;DHT22;17300;50.374;8.006;2022-09-09T05:53:24;19.20;60.30
30520;DHT22;17300;50.374;8.006;2022-09-09T05:55:58;19.20;60.20
30520;DHT22;17300;50.374;8.006;2022-09-09T05:58:25;19.30;60.60
30520;DHT22;17300;50.374;8.006;2022-09-09T06:00:52;19.30;60.30
30520;DHT22;17300;50.374;8.006;2022-09-09T06:03:19;19.40;60.30
30520;DHT22;17300;50.374;8.006;2022-09-09T06:05:57;19.40;60.20
30520;DHT22;17300;50.374;8.006;2022-09-09T06:08:23;19.40;60.40
30520;DHT22;17300;50.374;8.006;2022-09-09T06:10:51;19.40;60.40
30520;DHT22;17300;50.374;8.006;2022-09-09T06:13:18;19.40;60.40
30520;DHT22;17300;50.374;8.006;2022-09-09T06:15:49;19.50;60.50
30520;DHT22;17300;50.374;8.006;2022-09-09T06:18:16;19.50;60.70
30520;DHT22;17300;50.374;8.006;2022-09-09T06:20:52;19.60;60.60
30520;DHT22;17300;50.374;8.006;2022-09-09T06:23:19;19.60;60.70
30520;DHT22;17300;50.374;8.006;2022-09-09T06:25:46;19.70;60.60
30520;DHT22;17300;50.374;8.006;2022-09-09T06:28:15;19.80;60.60
30520;DHT22;17300;50.374;8.006;2022-09-09T06:30:42;19.80;60.40
30520;DHT22;17300;50.374;8.006;2022-09-09T06:33:10;19.90;60.40
30520;DHT22;17300;50.374;8.006;2022-09-09T06:35:36;19.90;60.80
30520;DHT22;17300;50.374;8.006;2022-09-09T06:38:03;20.10;62.80
30520;DHT22;17300;50.374;8.006;2022-09-09T06:40:31;20.40;64.80
30520;DHT22;17300;50.374;8.006;2022-09-09T06:42:59;20.80;64.50
30520;DHT22;17300;50.374;8.006;2022-09-09T06:45:27;21.10;63.30
30520;DHT22;17300;50.374;8.006;2022-09-09T06:47:55;21.50;62.20
30520;DHT22;17300;50.374;8.006;2022-09-09T06:50:22;21.70;61.40
30520;DHT22;17300;50.374;8.006;2022-09-09T06:52:48;22.00;62.00
30520;DHT22;17300;50.374;8.006;2022-09-09T06:55:15;22.30;62.80
30520;DHT22;17300;50.374;8.006;2022-09-09T06:57:43;22.70;64.00
30520;DHT22;17300;50.374;8.006;2022-09-09T07:00:11;23.30;65.20
30520;DHT22;17300;50.374;8.006;2022-09-09T07:02:40;23.90;65.30
30520;DHT22;17300;50.374;8.006;2022-09-09T07:05:08;24.50;64.30
30520;DHT22;17300;50.374;8.006;2022-09-09T07:07:35;25.10;63.10
30520;DHT22;17300;50.374;8.006;2022-09-09T07:10:03;25.70;62.00
30520;DHT22;17300;50.374;8.006;2022-09-09T07:12:30;26.30;61.30
30520;DHT22;17300;50.374;8.006;2022-09-09T07:14:57;26.90;60.30
30520;DHT22;17300;50.374;8.006;2022-09-09T07:17:23;27.50;59.80
30520;DHT22;17300;50.374;8.006;2022-09-09T07:19:51;28.10;60.10
30520;DHT22;17300;50.374;8.006;2022-09-09T07:22:18;29.00;59.80
30520;DHT22;17300;50.374;8.006;2022-09-09T07:24:45;29.70;58.70
30520;DHT22;17300;50.374;8.006;2022-09-09T07:27:12;30.60;57.40
30520;DHT22;17300;50.374;8.006;2022-09-09T07:29:38;31.30;56.10
30520;DHT22;17300;50.374;8.006;2022-09-09T07:32:05;32.10;54.80
30520;DHT22;17300;50.374;8.006;2022-09-09T07:34:32;32.80;54.00
30520;DHT22;17300;50.374;8.006;2022-09-09T07:37:00;33.60;52.60
30520;DHT22;17300;50.374;8.006;2022-09-09T07:39:27;34.40;51.30
30520;DHT22;17300;50.374;8.006;2022-09-09T07:41:54;35.00;49.50
30520;DHT22;17300;50.374;8.006;2022-09-09T07:44:22;35.50;47.50
30520;DHT22;17300;50.374;8.006;2022-09-09T07:46:50;35.80;45.30
30520;DHT22;17300;50.374;8.006;2022-09-09T07:49:16;35.80;42.70
30520;DHT22;17300;50.374;8.006;2022-09-09T07:51:45;35.60;40.90
30520;DHT22;17300;50.374;8.006;2022-09-09T07:54:16;35.10;39.80
30520;DHT22;17300;50.374;8.006;2022-09-09T07:56:46;34.60;39.10
30520;DHT22;17300;50.374;8.006;2022-09-09T07:59:13;34.10;39.30
30520;DHT22;17300;50.374;8.006;2022-09-09T08:01:42;33.70;39.40
30520;DHT22;17300;50.374;8.006;2022-09-09T08:04:11;33.50;41.00
30520;DHT22;17300;50.374;8.006;2022-09-09T08:06:42;33.60;42.50
30520;DHT22;17300;50.374;8.006;2022-09-09T08:09:10;34.00;43.50
30520;DHT22;17300;50.374;8.006;2022-09-09T08:11:39;34.60;43.00
30520;DHT22;17300;50.374;8.006;2022-09-09T08:14:07;35.20;41.60
30520;DHT22;17300;50.374;8.006;2022-09-09T08:16:36;35.90;41.60
30520;DHT22;17300;50.374;8.006;2022-09-09T08:19:04;36.50;40.50
30520;DHT22;17300;50.374;8.006;2022-09-09T08:21:34;37.10;39.70
30520;DHT22;17300;50.374;8.006;2022-09-09T08:24:02;37.70;38.90
30520;DHT22;17300;50.374;8.006;2022-09-09T08:26:31;38.30;38.30
30520;DHT22;17300;50.374;8.006;2022-09-09T08:29:01;38.90;37.60
30520;DHT22;17300;50.374;8.006;2022-09-09T08:31:30;39.50;36.30
30520;DHT22;17300;50.374;8.006;2022-09-09T08:33:59;40.00;35.50
30520;DHT22;17300;50.374;8.006;2022-09-09T08:36:28;40.20;33.70
30520;DHT22;17300;50.374;8.006;2022-09-09T08:38:57;40.10;32.00
30520;DHT22;17300;50.374;8.006;2022-09-09T08:41:49;39.80;31.10
30520;DHT22;17300;50.374;8.006;2022-09-09T08:44:26;39.60;31.70
30520;DHT22;17300;50.374;8.006;2022-09-09T08:47:03;39.30;30.40
30520;DHT22;17300;50.374;8.006;2022-09-09T08:52:40;38.70;30.80
30520;DHT22;17300;50.374;8.006;2022-09-09T08:55:24;38.50;31.00
30520;DHT22;17300;50.374;8.006;2022-09-09T08:57:54;38.60;31.50
30520;DHT22;17300;50.374;8.006;2022-09-09T09:00:23;38.70;31.70
30520;DHT22;17300;50.374;8.006;2022-09-09T09:03:02;38.90;31.80
30520;DHT22;17300;50.374;8.006;2022-09-09T09:05:37;39.20;30.80
30520;DHT22;17300;50.374;8.006;2022-09-09T09:08:11;39.20;29.90
30520;DHT22;17300;50.374;8.006;2022-09-09T09:10:46;38.80;28.60
30520;DHT22;17300;50.374;8.006;2022-09-09T09:13:15;38.20;28.20
30520;DHT22;17300;50.374;8.006;2022-09-09T09:15:48;37.70;28.80
30520;DHT22;17300;50.374;8.006;2022-09-09T09:18:16;37.30;29.50
30520;DHT22;17300;50.374;8.006;2022-09-09T09:20:50;37.30;30.60
30520;DHT22;17300;50.374;8.006;2022-09-09T09:23:21;37.40;30.30
30520;DHT22;17300;50.374;8.006;2022-09-09T09:25:48;37.50;29.80
30520;DHT22;17300;50.374;8.006;2022-09-09T09:28:18;37.70;30.00
30520;DHT22;17300;50.374;8.006;2022-09-09T09:30:54;37.80;29.70
30520;DHT22;17300;50.374;8.006;2022-09-09T09:33:26;37.60;28.80
30520;DHT22;17300;50.374;8.006;2022-09-09T09:35:54;37.20;28.10
30520;DHT22;17300;50.374;8.006;2022-09-09T09:38:22;36.70;28.10
30520;DHT22;17300;50.374;8.006;2022-09-09T09:40:50;36.30;28.60
30520;DHT22;17300;50.374;8.006;2022-09-09T09:43:21;36.00;29.00
30520;DHT22;17300;50.374;8.006;2022-09-09T09:45:49;35.70;28.80
30520;DHT22;17300;50.374;8.006;2022-09-09T09:48:16;35.40;29.20
30520;DHT22;17300;50.374;8.006;2022-09-09T09:50:48;35.40;29.80
30520;DHT22;17300;50.374;8.006;2022-09-09T09:53:20;35.20;29.20
30520;DHT22;17300;50.374;8.006;2022-09-09T09:55:52;34.90;28.90
30520;DHT22;17300;50.374;8.006;2022-09-09T09:58:20;34.50;28.80
30520;DHT22;17300;50.374;8.006;2022-09-09T10:00:52;34.20;29.40
30520;DHT22;17300;50.374;8.006;2022-09-09T10:03:22;34.10;30.10
30520;DHT22;17300;50.374;8.006;2022-09-09T10:05:50;34.30;31.50
30520;DHT22;17300;50.374;8.006;2022-09-09T10:08:17;34.80;32.50
30520;DHT22;17300;50.374;8.006;2022-09-09T10:11:17;35.40;32.70
30520;DHT22;17300;50.374;8.006;2022-09-09T10:13:55;36.40;32.20
30520;DHT22;17300;50.374;8.006;2022-09-09T10:16:40;37.40;31.90
30520;DHT22;17300;50.374;8.006;2022-09-09T10:19:13;38.40;30.70
30520;DHT22;17300;50.374;8.006;2022-09-09T10:21:59;39.20;29.90
30520;DHT22;17300;50.374;8.006;2022-09-09T10:24:42;40.00;29.10
30520;DHT22;17300;50.374;8.006;2022-09-09T10:27:18;40.60;28.10
30520;DHT22;17300;50.374;8.006;2022-09-09T10:30:01;41.10;27.30
30520;DHT22;17300;50.374;8.006;2022-09-09T10:32:42;41.50;27.10
30520;DHT22;17300;50.374;8.006;2022-09-09T10:35:24;41.80;26.60
30520;DHT22;17300;50.374;8.006;2022-09-09T10:38:11;42.00;26.30
30520;DHT22;17300;50.374;8.006;2022-09-09T10:40:48;42.20;25.90
30520;DHT22;17300;50.374;8.006;2022-09-09T10:43:35;42.30;25.60
30520;DHT22;17300;50.374;8.006;2022-09-09T10:46:12;42.50;25.30
30520;DHT22;17300;50.374;8.006;2022-09-09T10:48:54;42.50;25.10
30520;DHT22;17300;50.374;8.006;2022-09-09T10:51:30;42.60;24.90
30520;DHT22;17300;50.374;8.006;2022-09-09T10:54:11;42.60;24.60
30520;DHT22;17300;50.374;8.006;2022-09-09T10:56:42;42.60;24.60
30520;DHT22;17300;50.374;8.006;2022-09-09T10:59:13;42.60;24.40
30520;DHT22;17300;50.374;8.006;2022-09-09T11:01:44;42.50;24.10
30520;DHT22;17300;50.374;8.006;2022-09-09T11:04:15;42.30;23.80
30520;DHT22;17300;50.374;8.006;2022-09-09T11:06:47;42.20;24.00
30520;DHT22;17300;50.374;8.006;2022-09-09T11:09:17;42.10;24.00
30520;DHT22;17300;50.374;8.006;2022-09-09T11:11:49;41.80;23.80
30520;DHT22;17300;50.374;8.006;2022-09-09T11:14:22;41.60;23.90
30520;DHT22;17300;50.374;8.006;2022-09-09T11:16:55;41.30;23.90
30520;DHT22;17300;50.374;8.006;2022-09-09T11:19:31;40.90;23.80
30520;DHT22;17300;50.374;8.006;2022-09-09T11:22:02;40.60;23.90
30520;DHT22;17300;50.374;8.006;2022-09-09T11:24:34;40.40;24.40
30520;DHT22;17300;50.374;8.006;2022-09-09T11:27:06;40.20;24.60
30520;DHT22;17300;50.374;8.006;2022-09-09T11:30:04;40.00;24.60
30520;DHT22;17300;50.374;8.006;2022-09-09T11:36:05;39.60;25.70
30520;DHT22;17300;50.374;8.006;2022-09-09T11:38:44;39.30;24.50
30520;DHT22;17300;50.374;8.006;2022-09-09T11:41:12;38.90;24.10
30520;DHT22;17300;50.374;8.006;2022-09-09T11:43:42;38.60;24.10
30520;DHT22;17300;50.374;8.006;2022-09-09T11:46:10;38.20;24.10
30520;DHT22;17300;50.374;8.006;2022-09-09T11:48:40;37.70;24.10
30520;DHT22;17300;50.374;8.006;2022-09-09T11:51:11;37.20;24.40
30520;DHT22;17300;50.374;8.006;2022-09-09T11:53:48;36.70;24.40
30520;DHT22;17300;50.374;8.006;2022-09-09T11:56:25;36.10;24.60
30520;DHT22;17300;50.374;8.006;2022-09-09T11:58:57;35.60;24.90
30520;DHT22;17300;50.374;8.006;2022-09-09T12:01:33;35.20;25.50
30520;DHT22;17300;50.374;8.006;2022-09-09T12:04:26;34.80;25.90
30520;DHT22;17300;50.374;8.006;2022-09-09T12:06:58;34.50;26.30
30520;DHT22;17300;50.374;8.006;2022-09-09T12:09:32;34.20;26.40
30520;DHT22;17300;50.374;8.006;2022-09-09T12:12:23;33.90;26.70
30520;DHT22;17300;50.374;8.006;2022-09-09T12:17:48;33.30;27.20
30520;DHT22;17300;50.374;8.006;2022-09-09T12:20:17;33.20;27.30
30520;DHT22;17300;50.374;8.006;2022-09-09T12:22:59;32.90;27.40
30520;DHT22;17300;50.374;8.006;2022-09-09T12:25:46;32.60;27.70
30520;DHT22;17300;50.374;8.006;2022-09-09T12:28:17;32.20;27.80
30520;DHT22;17300;50.374;8.006;2022-09-09T12:30:51;31.90;28.10
30520;DHT22;17300;50.374;8.006;2022-09-09T12:33:19;31.50;28.30
30520;DHT22;17300;50.374;8.006;2022-09-09T12:35:51;31.20;28.40
30520;DHT22;17300;50.374;8.006;2022-09-09T12:38:26;30.70;28.60
30520;DHT22;17300;50.374;8.006;2022-09-09T12:40:57;30.40;28.90
30520;DHT22;17300;50.374;8.006;2022-09-09T12:43:26;30.00;29.20
30520;DHT22;17300;50.374;8.006;2022-09-09T12:45:56;29.70;29.70
30520;DHT22;17300;50.374;8.006;2022-09-09T12:48:29;29.40;30.10
30520;DHT22;17300;50.374;8.006;2022-09-09T12:50:58;29.30;30.60
30520;DHT22;17300;50.374;8.006;2022-09-09T12:53:29;29.20;31.00
30520;DHT22;17300;50.374;8.006;2022-09-09T12:56:00;29.00;31.70
30520;DHT22;17300;50.374;8.006;2022-09-09T12:58:29;28.90;32.20
30520;DHT22;17300;50.374;8.006;2022-09-09T13:00:59;28.90;32.70
30520;DHT22;17300;50.374;8.006;2022-09-09T13:03:26;28.80;33.10
30520;DHT22;17300;50.374;8.006;2022-09-09T13:05:58;28.70;33.30
30520;DHT22;17300;50.374;8.006;2022-09-09T13:08:27;28.70;33.90
30520;DHT22;17300;50.374;8.006;2022-09-09T13:10:56;28.70;34.00
30520;DHT22;17300;50.374;8.006;2022-09-09T13:13:27;28.70;34.00
30520;DHT22;17300;50.374;8.006;2022-09-09T13:15:56;28.70;33.90
30520;DHT22;17300;50.374;8.006;2022-09-09T13:18:27;28.60;33.60
30520;DHT22;17300;50.374;8.006;2022-09-09T13:20:54;28.70;33.90
30520;DHT22;17300;50.374;8.006;2022-09-09T13:23:28;28.60;34.00
30520;DHT22;17300;50.374;8.006;2022-09-09T13:25:57;28.60;34.50
30520;DHT22;17300;50.374;8.006;2022-09-09T13:28:26;28.60;34.30
30520;DHT22;17300;50.374;8.006;2022-09-09T13:30:56;28.60;34.20
30520;DHT22;17300;50.374;8.006;2022-09-09T13:33:30;28.60;34.30
30520;DHT22;17300;50.374;8.006;2022-09-09T13:36:01;28.50;34.30
30520;DHT22;17300;50.374;8.006;2022-09-09T13:38:32;28.40;34.30
30520;DHT22;17300;50.374;8.006;2022-09-09T13:41:01;28.40;34.60
30520;DHT22;17300;50.374;8.006;2022-09-09T13:43:31;28.40;34.50
30520;DHT22;17300;50.374;8.006;2022-09-09T13:46:01;28.40;34.20
30520;DHT22;17300;50.374;8.006;2022-09-09T13:48:29;28.30;34.30
30520;DHT22;17300;50.374;8.006;2022-09-09T13:50:59;28.20;34.30
30520;DHT22;17300;50.374;8.006;2022-09-09T13:53:27;28.10;34.50
30520;DHT22;17300;50.374;8.006;2022-09-09T13:55:55;28.10;34.60
30520;DHT22;17300;50.374;8.006;2022-09-09T13:58:22;28.10;34.60
30520;DHT22;17300;50.374;8.006;2022-09-09T14:00:51;27.90;34.60
30520;DHT22;17300;50.374;8.006;2022-09-09T14:03:18;27.90;34.50
30520;DHT22;17300;50.374;8.006;2022-09-09T14:05:45;27.70;34.60
30520;DHT22;17300;50.374;8.006;2022-09-09T14:08:20;27.60;34.80
30520;DHT22;17300;50.374;8.006;2022-09-09T14:10:48;27.40;34.20
30520;DHT22;17300;50.374;8.006;2022-09-09T14:13:16;27.20;35.30
30520;DHT22;17300;50.374;8.006;2022-09-09T14:15:43;26.90;35.80
30520;DHT22;17300;50.374;8.006;2022-09-09T14:18:11;26.60;36.00
30520;DHT22;17300;50.374;8.006;2022-09-09T14:20:39;26.30;36.90
30520;DHT22;17300;50.374;8.006;2022-09-09T14:23:10;25.90;37.10
30520;DHT22;17300;50.374;8.006;2022-09-09T14:25:40;25.60;38.60
30520;DHT22;17300;50.374;8.006;2022-09-09T14:28:09;25.40;38.90
30520;DHT22;17300;50.374;8.006;2022-09-09T14:30:39;25.20;39.80
30520;DHT22;17300;50.374;8.006;2022-09-09T14:33:06;25.20;40.40
30520;DHT22;17300;50.374;8.006;2022-09-09T14:35:34;25.20;41.70
30520;DHT22;17300;50.374;8.006;2022-09-09T14:38:01;25.20;41.30
30520;DHT22;17300;50.374;8.006;2022-09-09T14:40:28;25.30;41.50
30520;DHT22;17300;50.374;8.006;2022-09-09T14:42:55;25.40;41.80
30520;DHT22;17300;50.374;8.006;2022-09-09T14:45:22;25.40;42.20
30520;DHT22;17300;50.374;8.006;2022-09-09T14:47:51;25.50;42.00
30520;DHT22;17300;50.374;8.006;2022-09-09T14:50:18;25.50;42.40
30520;DHT22;17300;50.374;8.006;2022-09-09T14:52:45;25.60;42.60
30520;DHT22;17300;50.374;8.006;2022-09-09T14:55:13;25.60;42.30
30520;DHT22;17300;50.374;8.006;2022-09-09T14:57:40;25.60;42.60
30520;DHT22;17300;50.374;8.006;2022-09-09T15:00:09;25.60;42.20
30520;DHT22;17300;50.374;8.006;2022-09-09T15:02:36;25.60;42.00
30520;DHT22;17300;50.374;8.006;2022-09-09T15:05:05;25.60;41.80
30520;DHT22;17300;50.374;8.006;2022-09-09T15:07:33;25.50;41.90
30520;DHT22;17300;50.374;8.006;2022-09-09T15:09:59;25.40;41.70
30520;DHT22;17300;50.374;8.006;2022-09-09T15:12:26;25.40;41.80
30520;DHT22;17300;50.374;8.006;2022-09-09T15:14:53;25.20;41.80
30520;DHT22;17300;50.374;8.006;2022-09-09T15:17:21;25.10;42.00
30520;DHT22;17300;50.374;8.006;2022-09-09T15:19:47;25.00;42.20
30520;DHT22;17300;50.374;8.006;2022-09-09T15:22:16;24.90;42.30
30520;DHT22;17300;50.374;8.006;2022-09-09T15:24:44;24.80;42.70
30520;DHT22;17300;50.374;8.006;2022-09-09T15:27:11;24.70;42.70
30520;DHT22;17300;50.374;8.006;2022-09-09T15:29:39;24.60;42.90
30520;DHT22;17300;50.374;8.006;2022-09-09T15:32:07;24.50;43.20
30520;DHT22;17300;50.374;8.006;2022-09-09T15:34:33;24.50;43.40
30520;DHT22;17300;50.374;8.006;2022-09-09T15:37:00;24.40;43.90
30520;DHT22;17300;50.374;8.006;2022-09-09T15:39:28;24.30;44.30
30520;DHT22;17300;50.374;8.006;2022-09-09T15:41:55;24.30;44.50
30520;DHT22;17300;50.374;8.006;2022-09-09T15:44:21;24.20;43.90
30520;DHT22;17300;50.374;8.006;2022-09-09T15:46:52;24.00;43.70
30520;DHT22;17300;50.374;8.006;2022-09-09T15:49:20;23.80;43.80
30520;DHT22;17300;50.374;8.006;2022-09-09T15:51:54;23.70;44.30
30520;DHT22;17300;50.374;8.006;2022-09-09T15:54:24;23.50;44.40
30520;DHT22;17300;50.374;8.006;2022-09-09T15:56:54;23.30;44.70
30520;DHT22;17300;50.374;8.006;2022-09-09T15:59:21;23.10;45.10